SAS2645 ESSA-EDDH
Flight info
| Callsign | SAS2645 |
|---|---|
| Flight time | 1h 21m |
| Altitude | 34000 |
| Route | NOSLI N850 ABAMA DCT GIMRU T503 MICOS/N0401F280 N850 BOGMU BOGMU3S |
| Aircraft | A319/M-SDE3FGHIRWY/LB1 |
Departure
| Time | 2026-04-25 18:54 |
|---|---|
| Airport | Stockholm-Arlanda Airport (ESSA) |
Arrival
| Time | 2026-04-25 20:15 |
|---|---|
| Airport | Hamburg Helmut Schmidt Airport (EDDH) |
| Time | Latitude | Longitude | Altitude | Speed | Heading |
|---|---|---|---|---|---|
| 2026-04-25 18:21 | 59.65242 | 17.92999 | 112 ft | 0 kts | 71° |
| 2026-04-25 18:46 | 59.65242 | 17.92997 | 112 ft | 1 kts | 71° |
| 2026-04-25 18:47 | 59.65235 | 17.92957 | 112 ft | 3 kts | 70° |
| 2026-04-25 18:47 | 59.65227 | 17.92914 | 110 ft | 3 kts | 59° |
| 2026-04-25 18:47 | 59.65213 | 17.92881 | 111 ft | 3 kts | 28° |
| 2026-04-25 18:47 | 59.65193 | 17.92872 | 107 ft | 3 kts | 344° |
| 2026-04-25 18:48 | 59.65187 | 17.92876 | 110 ft | 0 kts | 343° |
| 2026-04-25 18:50 | 59.65198 | 17.92868 | 107 ft | 3 kts | 340° |
| 2026-04-25 18:51 | 59.65229 | 17.92841 | 112 ft | 7 kts | 334° |
| 2026-04-25 18:51 | 59.65262 | 17.92806 | 112 ft | 10 kts | 330° |
| 2026-04-25 18:51 | 59.65361 | 17.92702 | 112 ft | 14 kts | 332° |
| 2026-04-25 18:51 | 59.65463 | 17.92592 | 108 ft | 20 kts | 333° |
| 2026-04-25 18:52 | 59.65550 | 17.92762 | 106 ft | 22 kts | 75° |
| 2026-04-25 18:52 | 59.65590 | 17.93072 | 108 ft | 24 kts | 76° |
| 2026-04-25 18:52 | 59.65648 | 17.93342 | 109 ft | 20 kts | 45° |
| 2026-04-25 18:52 | 59.65722 | 17.93493 | 111 ft | 14 kts | 46° |
| 2026-04-25 18:53 | 59.65788 | 17.93628 | 113 ft | 15 kts | 45° |
| 2026-04-25 18:53 | 59.65867 | 17.93821 | 118 ft | 25 kts | 68° |
| 2026-04-25 18:53 | 59.65952 | 17.94471 | 122 ft | 80 kts | 76° |
| 2026-04-25 18:53 | 59.66139 | 17.95935 | 123 ft | 138 kts | 76° |
| 2026-04-25 18:54 | 59.66669 | 18.00088 | 1167 ft | 155 kts | 71° |
| 2026-04-25 18:54 | 59.66924 | 18.02142 | 1855 ft | 155 kts | 67° |
| 2026-04-25 18:54 | 59.67237 | 18.04323 | 2209 ft | 173 kts | 60° |
| 2026-04-25 18:55 | 59.67916 | 18.06391 | 2552 ft | 188 kts | 39° |
| 2026-04-25 18:55 | 59.69056 | 18.07809 | 2971 ft | 204 kts | 15° |
| 2026-04-25 18:55 | 59.70525 | 18.08048 | 3588 ft | 222 kts | 350° |
| 2026-04-25 18:55 | 59.71942 | 18.06760 | 4595 ft | 231 kts | 324° |
| 2026-04-25 18:56 | 59.72870 | 18.04131 | 5640 ft | 247 kts | 295° |
| 2026-04-25 18:56 | 59.72936 | 18.00648 | 6721 ft | 265 kts | 259° |
| 2026-04-25 18:56 | 59.72144 | 17.97418 | 8255 ft | 252 kts | 249° |
| 2026-04-25 18:56 | 59.71332 | 17.94476 | 9676 ft | 239 kts | 250° |
| 2026-04-25 18:57 | 59.70560 | 17.91570 | 10580 ft | 242 kts | 252° |
| 2026-04-25 18:57 | 59.69829 | 17.88397 | 10996 ft | 264 kts | 254° |
| 2026-04-25 18:57 | 59.69181 | 17.84860 | 11348 ft | 282 kts | 264° |
| 2026-04-25 18:57 | 59.69044 | 17.83612 | 11455 ft | 289 kts | 264° |
| 2026-04-25 18:58 | 59.68253 | 17.76743 | 12268 ft | 315 kts | 263° |
| 2026-04-25 18:58 | 59.66566 | 17.68556 | 13921 ft | 336 kts | 239° |
| 2026-04-25 18:58 | 59.64905 | 17.65201 | 14635 ft | 349 kts | 223° |
| 2026-04-25 18:59 | 59.60332 | 17.61234 | 16053 ft | 369 kts | 201° |
| 2026-04-25 18:59 | 59.55405 | 17.58227 | 17434 ft | 377 kts | 201° |
| 2026-04-25 19:00 | 59.50410 | 17.55147 | 17763 ft | 368 kts | 202° |
| 2026-04-25 19:00 | 59.47956 | 17.53500 | 17830 ft | 380 kts | 203° |
| 2026-04-25 19:01 | 59.42760 | 17.49835 | 18192 ft | 412 kts | 204° |
| 2026-04-25 19:01 | 59.40049 | 17.47933 | 18786 ft | 414 kts | 203° |
| 2026-04-25 19:01 | 59.37334 | 17.46063 | 19539 ft | 413 kts | 202° |
| 2026-04-25 19:01 | 59.34620 | 17.44216 | 20331 ft | 411 kts | 202° |
| 2026-04-25 19:02 | 59.29233 | 17.40583 | 21880 ft | 408 kts | 202° |
| 2026-04-25 19:02 | 59.26560 | 17.38787 | 22695 ft | 405 kts | 202° |
| 2026-04-25 19:02 | 59.23902 | 17.36998 | 23475 ft | 403 kts | 202° |
| 2026-04-25 19:03 | 59.20397 | 17.34628 | 24262 ft | 402 kts | 202° |
| 2026-04-25 19:03 | 59.15984 | 17.31419 | 24719 ft | 413 kts | 212° |
| 2026-04-25 19:03 | 59.13600 | 17.28243 | 24852 ft | 419 kts | 222° |
| 2026-04-25 19:04 | 59.08896 | 17.21060 | 25112 ft | 439 kts | 223° |
| 2026-04-25 19:04 | 59.06474 | 17.17340 | 25306 ft | 447 kts | 223° |
| 2026-04-25 19:05 | 59.01572 | 17.09844 | 26136 ft | 449 kts | 223° |
| 2026-04-25 19:05 | 58.96639 | 17.02386 | 27061 ft | 450 kts | 223° |
| 2026-04-25 19:05 | 58.94162 | 16.98654 | 27519 ft | 451 kts | 223° |
| 2026-04-25 19:06 | 58.91682 | 16.94921 | 27980 ft | 451 kts | 223° |
| 2026-04-25 19:06 | 58.86720 | 16.87456 | 28896 ft | 453 kts | 223° |
| 2026-04-25 19:06 | 58.84228 | 16.83715 | 29357 ft | 453 kts | 224° |
| 2026-04-25 19:07 | 58.79233 | 16.76249 | 30188 ft | 454 kts | 224° |
| 2026-04-25 19:07 | 58.76731 | 16.72521 | 30568 ft | 455 kts | 224° |
| 2026-04-25 19:08 | 58.71721 | 16.65081 | 31344 ft | 455 kts | 223° |
| 2026-04-25 19:08 | 58.69247 | 16.61421 | 31735 ft | 455 kts | 223° |
| 2026-04-25 19:09 | 58.61712 | 16.50314 | 32862 ft | 456 kts | 224° |
| 2026-04-25 19:09 | 58.60863 | 16.49063 | 32963 ft | 457 kts | 224° |
| 2026-04-25 19:09 | 58.54127 | 16.39142 | 33746 ft | 460 kts | 223° |
| 2026-04-25 19:10 | 58.51590 | 16.35424 | 33811 ft | 459 kts | 223° |
| 2026-04-25 19:10 | 58.46510 | 16.28025 | 33814 ft | 459 kts | 223° |
| 2026-04-25 19:11 | 58.41429 | 16.20652 | 33814 ft | 459 kts | 223° |
| 2026-04-25 19:11 | 58.36346 | 16.13276 | 33817 ft | 459 kts | 223° |
| 2026-04-25 19:12 | 58.31257 | 16.05918 | 33826 ft | 459 kts | 223° |
| 2026-04-25 19:12 | 58.26161 | 15.98613 | 33811 ft | 459 kts | 223° |
| 2026-04-25 19:13 | 58.21063 | 15.91317 | 33817 ft | 459 kts | 223° |
| 2026-04-25 19:13 | 58.15965 | 15.84035 | 33822 ft | 459 kts | 223° |
| 2026-04-25 19:14 | 58.10857 | 15.76781 | 33826 ft | 459 kts | 223° |
| 2026-04-25 19:14 | 58.05751 | 15.69545 | 33811 ft | 459 kts | 223° |
| 2026-04-25 19:15 | 58.00639 | 15.62343 | 33813 ft | 458 kts | 223° |
| 2026-04-25 19:15 | 57.95563 | 15.55206 | 33825 ft | 458 kts | 223° |
| 2026-04-25 19:16 | 57.90448 | 15.48039 | 33842 ft | 458 kts | 223° |
| 2026-04-25 19:16 | 57.85334 | 15.40896 | 33843 ft | 458 kts | 223° |
| 2026-04-25 19:17 | 57.80214 | 15.33767 | 33800 ft | 458 kts | 224° |
| 2026-04-25 19:17 | 57.75080 | 15.26654 | 33826 ft | 460 kts | 224° |
| 2026-04-25 19:18 | 57.69927 | 15.19546 | 33821 ft | 461 kts | 224° |
| 2026-04-25 19:18 | 57.65599 | 15.13579 | 33823 ft | 462 kts | 223° |
| 2026-04-25 19:19 | 57.60418 | 15.06479 | 33833 ft | 462 kts | 223° |
| 2026-04-25 19:19 | 57.55263 | 14.99429 | 33832 ft | 463 kts | 224° |
| 2026-04-25 19:20 | 57.50063 | 14.92338 | 33844 ft | 463 kts | 224° |
| 2026-04-25 19:20 | 57.44860 | 14.85273 | 33846 ft | 463 kts | 224° |
| 2026-04-25 19:21 | 57.39644 | 14.78231 | 33858 ft | 463 kts | 223° |
| 2026-04-25 19:21 | 57.31830 | 14.67700 | 33817 ft | 463 kts | 224° |
| 2026-04-25 19:22 | 57.26615 | 14.60723 | 33837 ft | 462 kts | 224° |
| 2026-04-25 19:23 | 57.18831 | 14.50358 | 33837 ft | 462 kts | 224° |
| 2026-04-25 19:23 | 57.11010 | 14.39970 | 33842 ft | 462 kts | 223° |
| 2026-04-25 19:24 | 57.05798 | 14.33087 | 33820 ft | 461 kts | 224° |
| 2026-04-25 19:25 | 56.95329 | 14.19323 | 33869 ft | 466 kts | 224° |
| 2026-04-25 19:25 | 56.90058 | 14.12440 | 33866 ft | 465 kts | 224° |
| 2026-04-25 19:26 | 56.84794 | 14.05571 | 33829 ft | 464 kts | 225° |
| 2026-04-25 19:26 | 56.79511 | 13.98713 | 33870 ft | 466 kts | 224° |
| 2026-04-25 19:27 | 56.75113 | 13.93031 | 33878 ft | 465 kts | 224° |
| 2026-04-25 19:27 | 56.68979 | 13.85127 | 33886 ft | 465 kts | 224° |
| 2026-04-25 19:28 | 56.63702 | 13.78343 | 33883 ft | 464 kts | 224° |
| 2026-04-25 19:28 | 56.58423 | 13.71570 | 33869 ft | 464 kts | 225° |
| 2026-04-25 19:29 | 56.53144 | 13.64837 | 33884 ft | 464 kts | 224° |
| 2026-04-25 19:29 | 56.47860 | 13.58147 | 33888 ft | 463 kts | 224° |
| 2026-04-25 19:30 | 56.42606 | 13.51506 | 33880 ft | 463 kts | 224° |
| 2026-04-25 19:30 | 56.37331 | 13.44834 | 33819 ft | 463 kts | 225° |
| 2026-04-25 19:31 | 56.32047 | 13.38162 | 33901 ft | 464 kts | 225° |
| 2026-04-25 19:31 | 56.26745 | 13.31520 | 33904 ft | 463 kts | 225° |
| 2026-04-25 19:32 | 56.21452 | 13.24924 | 33920 ft | 462 kts | 225° |
| 2026-04-25 19:32 | 56.17042 | 13.19429 | 33903 ft | 466 kts | 226° |
| 2026-04-25 19:33 | 56.10837 | 13.11722 | 33895 ft | 467 kts | 227° |
| 2026-04-25 19:33 | 56.05478 | 13.05098 | 33905 ft | 467 kts | 226° |
| 2026-04-25 19:34 | 56.00124 | 12.98517 | 33909 ft | 466 kts | 226° |
| 2026-04-25 19:34 | 55.94779 | 12.91957 | 33900 ft | 466 kts | 226° |
| 2026-04-25 19:35 | 55.89439 | 12.85428 | 33844 ft | 465 kts | 227° |
| 2026-04-25 19:35 | 55.84124 | 12.78932 | 33927 ft | 467 kts | 227° |
| 2026-04-25 19:36 | 55.78760 | 12.72390 | 33938 ft | 467 kts | 227° |
| 2026-04-25 19:36 | 55.73402 | 12.65894 | 33941 ft | 466 kts | 227° |
| 2026-04-25 19:37 | 55.68036 | 12.59430 | 33935 ft | 466 kts | 227° |
| 2026-04-25 19:37 | 55.62676 | 12.52990 | 33953 ft | 467 kts | 228° |
| 2026-04-25 19:38 | 55.57292 | 12.46531 | 33958 ft | 467 kts | 227° |
| 2026-04-25 19:38 | 55.51919 | 12.40109 | 33938 ft | 465 kts | 228° |
| 2026-04-25 19:39 | 55.46558 | 12.33708 | 33940 ft | 465 kts | 228° |
| 2026-04-25 19:39 | 55.41198 | 12.27338 | 33882 ft | 464 kts | 228° |
| 2026-04-25 19:40 | 55.35854 | 12.21015 | 33959 ft | 467 kts | 228° |
| 2026-04-25 19:40 | 55.30457 | 12.14666 | 33961 ft | 466 kts | 227° |
| 2026-04-25 19:41 | 55.25077 | 12.08351 | 33960 ft | 465 kts | 228° |
| 2026-04-25 19:41 | 55.21506 | 12.04163 | 33960 ft | 465 kts | 228° |
| 2026-04-25 19:42 | 55.14338 | 11.95781 | 33973 ft | 462 kts | 227° |
| 2026-04-25 19:42 | 55.09026 | 11.89599 | 34002 ft | 461 kts | 227° |
| 2026-04-25 19:43 | 55.03683 | 11.83406 | 33987 ft | 464 kts | 227° |
| 2026-04-25 19:43 | 55.00981 | 11.80262 | 33868 ft | 469 kts | 227° |
| 2026-04-25 19:43 | 54.98246 | 11.77081 | 33101 ft | 474 kts | 227° |
| 2026-04-25 19:44 | 54.95499 | 11.73899 | 32416 ft | 475 kts | 227° |
| 2026-04-25 19:44 | 54.92744 | 11.70734 | 31933 ft | 472 kts | 226° |
| 2026-04-25 19:44 | 54.90011 | 11.67611 | 31410 ft | 469 kts | 226° |
| 2026-04-25 19:44 | 54.87284 | 11.64504 | 30883 ft | 467 kts | 227° |
| 2026-04-25 19:45 | 54.84579 | 11.61418 | 30347 ft | 465 kts | 227° |
| 2026-04-25 19:45 | 54.81884 | 11.58336 | 29748 ft | 464 kts | 227° |
| 2026-04-25 19:45 | 54.79193 | 11.55258 | 29284 ft | 459 kts | 227° |
| 2026-04-25 19:45 | 54.76538 | 11.52235 | 28766 ft | 455 kts | 227° |
| 2026-04-25 19:46 | 54.73907 | 11.49249 | 28349 ft | 449 kts | 227° |
| 2026-04-25 19:46 | 54.71310 | 11.46308 | 27860 ft | 444 kts | 226° |
| 2026-04-25 19:46 | 54.68775 | 11.43449 | 27498 ft | 437 kts | 226° |
| 2026-04-25 19:46 | 54.66208 | 11.40545 | 27058 ft | 433 kts | 227° |
| 2026-04-25 19:47 | 54.63698 | 11.37698 | 26559 ft | 430 kts | 227° |
| 2026-04-25 19:47 | 54.61216 | 11.34883 | 26188 ft | 424 kts | 225° |
| 2026-04-25 19:47 | 54.58791 | 11.32136 | 25758 ft | 422 kts | 225° |
| 2026-04-25 19:47 | 54.56311 | 11.29328 | 25314 ft | 420 kts | 225° |
| 2026-04-25 19:48 | 54.53902 | 11.26611 | 24845 ft | 419 kts | 225° |
| 2026-04-25 19:48 | 54.51466 | 11.23875 | 24393 ft | 418 kts | 225° |
| 2026-04-25 19:48 | 54.49039 | 11.21157 | 24002 ft | 414 kts | 225° |
| 2026-04-25 19:48 | 54.46625 | 11.18451 | 23557 ft | 411 kts | 224° |
| 2026-04-25 19:49 | 54.44236 | 11.15783 | 22996 ft | 410 kts | 224° |
| 2026-04-25 19:49 | 54.43427 | 11.14877 | 22876 ft | 408 kts | 224° |
| 2026-04-25 19:49 | 54.39509 | 11.10506 | 22119 ft | 402 kts | 225° |
| 2026-04-25 19:49 | 54.37177 | 11.07912 | 21620 ft | 399 kts | 225° |
| 2026-04-25 19:50 | 54.32566 | 11.02792 | 20758 ft | 391 kts | 225° |
| 2026-04-25 19:50 | 54.30461 | 11.00016 | 20243 ft | 372 kts | 238° |
| 2026-04-25 19:50 | 54.28834 | 10.96737 | 19837 ft | 355 kts | 246° |
| 2026-04-25 19:51 | 54.27337 | 10.93394 | 19419 ft | 351 kts | 246° |
| 2026-04-25 19:51 | 54.25854 | 10.90098 | 18955 ft | 348 kts | 246° |
| 2026-04-25 19:51 | 54.24382 | 10.86850 | 18618 ft | 343 kts | 245° |
| 2026-04-25 19:51 | 54.22929 | 10.83648 | 18215 ft | 339 kts | 245° |
| 2026-04-25 19:52 | 54.21511 | 10.80523 | 17801 ft | 335 kts | 245° |
| 2026-04-25 19:52 | 54.20093 | 10.77400 | 17414 ft | 330 kts | 245° |
| 2026-04-25 19:52 | 54.18699 | 10.74322 | 17033 ft | 326 kts | 246° |
| 2026-04-25 19:52 | 54.17322 | 10.71280 | 16636 ft | 322 kts | 246° |
| 2026-04-25 19:53 | 54.15958 | 10.68272 | 16253 ft | 319 kts | 246° |
| 2026-04-25 19:53 | 54.14606 | 10.65299 | 15865 ft | 316 kts | 246° |
| 2026-04-25 19:53 | 54.13260 | 10.62345 | 15485 ft | 314 kts | 245° |
| 2026-04-25 19:53 | 54.11924 | 10.59422 | 15099 ft | 311 kts | 245° |
| 2026-04-25 19:54 | 54.10598 | 10.56522 | 14729 ft | 309 kts | 245° |
| 2026-04-25 19:54 | 54.09277 | 10.53634 | 14363 ft | 307 kts | 245° |
| 2026-04-25 19:54 | 54.07968 | 10.50770 | 13996 ft | 306 kts | 245° |
| 2026-04-25 19:54 | 54.07544 | 10.49842 | 13861 ft | 306 kts | 245° |
| 2026-04-25 19:55 | 54.05356 | 10.45070 | 13189 ft | 303 kts | 245° |
| 2026-04-25 19:55 | 54.04061 | 10.42255 | 12781 ft | 301 kts | 244° |
| 2026-04-25 19:55 | 54.02773 | 10.39461 | 12423 ft | 299 kts | 244° |
| 2026-04-25 19:55 | 54.01497 | 10.36690 | 12047 ft | 297 kts | 244° |
| 2026-04-25 19:56 | 54.00220 | 10.33928 | 11661 ft | 298 kts | 242° |
| 2026-04-25 19:56 | 53.98596 | 10.31598 | 11279 ft | 318 kts | 219° |
| 2026-04-25 19:56 | 53.96416 | 10.30471 | 10934 ft | 339 kts | 191° |
| 2026-04-25 19:56 | 53.94090 | 10.30978 | 10852 ft | 347 kts | 168° |
| 2026-04-25 19:57 | 53.91787 | 10.32213 | 10713 ft | 347 kts | 166° |
| 2026-04-25 19:57 | 53.89494 | 10.33489 | 10568 ft | 346 kts | 166° |
| 2026-04-25 19:57 | 53.87213 | 10.34773 | 10423 ft | 344 kts | 166° |
| 2026-04-25 19:57 | 53.84949 | 10.36072 | 10155 ft | 342 kts | 166° |
| 2026-04-25 19:58 | 53.82694 | 10.37374 | 9755 ft | 341 kts | 165° |
| 2026-04-25 19:58 | 53.80445 | 10.38665 | 9327 ft | 341 kts | 165° |
| 2026-04-25 19:58 | 53.78198 | 10.39943 | 8874 ft | 341 kts | 165° |
| 2026-04-25 19:58 | 53.75953 | 10.41207 | 8459 ft | 340 kts | 165° |
| 2026-04-25 19:59 | 53.73708 | 10.42454 | 8048 ft | 339 kts | 165° |
| 2026-04-25 19:59 | 53.71467 | 10.43684 | 7642 ft | 338 kts | 165° |
| 2026-04-25 19:59 | 53.69237 | 10.44897 | 7263 ft | 336 kts | 166° |
| 2026-04-25 19:59 | 53.67015 | 10.46106 | 6863 ft | 335 kts | 165° |
| 2026-04-25 20:00 | 53.64803 | 10.47307 | 6465 ft | 333 kts | 165° |
| 2026-04-25 20:00 | 53.64087 | 10.47692 | 6329 ft | 332 kts | 165° |
| 2026-04-25 20:00 | 53.60497 | 10.49595 | 5728 ft | 313 kts | 165° |
| 2026-04-25 20:00 | 53.58435 | 10.50661 | 5417 ft | 307 kts | 165° |
| 2026-04-25 20:01 | 53.54404 | 10.52677 | 4832 ft | 301 kts | 165° |
| 2026-04-25 20:01 | 53.52399 | 10.53656 | 4652 ft | 299 kts | 166° |
| 2026-04-25 20:01 | 53.50412 | 10.54659 | 4465 ft | 297 kts | 165° |
| 2026-04-25 20:02 | 53.48435 | 10.55653 | 4285 ft | 296 kts | 165° |
| 2026-04-25 20:02 | 53.46467 | 10.56641 | 4111 ft | 295 kts | 165° |
| 2026-04-25 20:02 | 53.44509 | 10.57628 | 3968 ft | 294 kts | 165° |
| 2026-04-25 20:02 | 53.42555 | 10.58608 | 3979 ft | 293 kts | 166° |
| 2026-04-25 20:03 | 53.40599 | 10.59588 | 3980 ft | 294 kts | 165° |
| 2026-04-25 20:03 | 53.38636 | 10.60571 | 3979 ft | 295 kts | 166° |
| 2026-04-25 20:03 | 53.36672 | 10.61553 | 3986 ft | 295 kts | 166° |
| 2026-04-25 20:03 | 53.34704 | 10.62536 | 3989 ft | 295 kts | 166° |
| 2026-04-25 20:04 | 53.32737 | 10.63518 | 3989 ft | 295 kts | 166° |
| 2026-04-25 20:04 | 53.30738 | 10.64075 | 3987 ft | 289 kts | 188° |
| 2026-04-25 20:04 | 53.28860 | 10.63195 | 3985 ft | 275 kts | 217° |
| 2026-04-25 20:04 | 53.27529 | 10.61096 | 3983 ft | 257 kts | 247° |
| 2026-04-25 20:05 | 53.27030 | 10.58372 | 3990 ft | 240 kts | 276° |
| 2026-04-25 20:05 | 53.27170 | 10.55631 | 3993 ft | 236 kts | 284° |
| 2026-04-25 20:05 | 53.27320 | 10.53840 | 3997 ft | 235 kts | 284° |
| 2026-04-25 20:05 | 53.27646 | 10.50228 | 4001 ft | 235 kts | 284° |
| 2026-04-25 20:06 | 53.27825 | 10.48449 | 3995 ft | 233 kts | 290° |
| 2026-04-25 20:06 | 53.28500 | 10.46044 | 4007 ft | 228 kts | 303° |
| 2026-04-25 20:06 | 53.29306 | 10.43757 | 4001 ft | 228 kts | 304° |
| 2026-04-25 20:06 | 53.30119 | 10.41481 | 3999 ft | 228 kts | 304° |
| 2026-04-25 20:07 | 53.30935 | 10.39207 | 3999 ft | 228 kts | 304° |
| 2026-04-25 20:07 | 53.31756 | 10.36937 | 3995 ft | 228 kts | 304° |
| 2026-04-25 20:07 | 53.32576 | 10.34666 | 4000 ft | 228 kts | 304° |
| 2026-04-25 20:07 | 53.33395 | 10.32395 | 3755 ft | 227 kts | 304° |
| 2026-04-25 20:08 | 53.34209 | 10.30132 | 3466 ft | 228 kts | 304° |
| 2026-04-25 20:08 | 53.35027 | 10.27844 | 3163 ft | 229 kts | 304° |
| 2026-04-25 20:08 | 53.35843 | 10.25566 | 3012 ft | 228 kts | 304° |
| 2026-04-25 20:08 | 53.36707 | 10.23347 | 3002 ft | 226 kts | 314° |
| 2026-04-25 20:09 | 53.37953 | 10.21769 | 3006 ft | 225 kts | 329° |
| 2026-04-25 20:09 | 53.39297 | 10.20462 | 3003 ft | 217 kts | 330° |
| 2026-04-25 20:09 | 53.40550 | 10.19264 | 3006 ft | 207 kts | 330° |
| 2026-04-25 20:09 | 53.41813 | 10.18092 | 3001 ft | 207 kts | 332° |
| 2026-04-25 20:10 | 53.42673 | 10.17329 | 3002 ft | 207 kts | 332° |
| 2026-04-25 20:10 | 53.44327 | 10.15880 | 3004 ft | 194 kts | 332° |
| 2026-04-25 20:10 | 53.45478 | 10.14882 | 3005 ft | 180 kts | 332° |
| 2026-04-25 20:10 | 53.46580 | 10.13939 | 3007 ft | 177 kts | 332° |
| 2026-04-25 20:11 | 53.47674 | 10.13013 | 3010 ft | 176 kts | 332° |
| 2026-04-25 20:11 | 53.48767 | 10.12095 | 3010 ft | 176 kts | 332° |
| 2026-04-25 20:11 | 53.49860 | 10.11177 | 3006 ft | 176 kts | 332° |
| 2026-04-25 20:11 | 53.50959 | 10.10255 | 2825 ft | 178 kts | 332° |
| 2026-04-25 20:12 | 53.52059 | 10.09326 | 2442 ft | 172 kts | 330° |
| 2026-04-25 20:12 | 53.53077 | 10.08413 | 2074 ft | 161 kts | 330° |
| 2026-04-25 20:12 | 53.54026 | 10.07540 | 1784 ft | 151 kts | 329° |
| 2026-04-25 20:12 | 53.54638 | 10.06952 | 1731 ft | 149 kts | 329° |
| 2026-04-25 20:13 | 53.55822 | 10.05811 | 1646 ft | 146 kts | 329° |
| 2026-04-25 20:13 | 53.56721 | 10.05018 | 1475 ft | 146 kts | 332° |
| 2026-04-25 20:13 | 53.57637 | 10.04277 | 1251 ft | 145 kts | 331° |
| 2026-04-25 20:13 | 53.58550 | 10.03498 | 1030 ft | 146 kts | 330° |
| 2026-04-25 20:14 | 53.59435 | 10.02708 | 870 ft | 144 kts | 330° |
| 2026-04-25 20:14 | 53.60340 | 10.01946 | 669 ft | 147 kts | 329° |
| 2026-04-25 20:14 | 53.61209 | 10.01172 | 467 ft | 136 kts | 329° |
| 2026-04-25 20:14 | 53.62029 | 10.00471 | 282 ft | 130 kts | 328° |
| 2026-04-25 20:15 | 53.62824 | 9.99783 | 112 ft | 127 kts | 329° |
| 2026-04-25 20:15 | 53.63583 | 9.99131 | 51 ft | 112 kts | 328° |
| 2026-04-25 20:15 | 53.64164 | 9.98623 | 53 ft | 70 kts | 333° |
| 2026-04-25 20:15 | 53.64499 | 9.98374 | 56 ft | 46 kts | 351° |
| 2026-04-25 20:16 | 53.64693 | 9.98418 | 51 ft | 19 kts | 46° |
| 2026-04-25 20:16 | 53.64641 | 9.98551 | 53 ft | 15 kts | 153° |
| 2026-04-25 20:16 | 53.64537 | 9.98642 | 52 ft | 18 kts | 153° |
| 2026-04-25 20:16 | 53.64415 | 9.98747 | 51 ft | 22 kts | 153° |
| 2026-04-25 20:17 | 53.64272 | 9.98868 | 50 ft | 24 kts | 153° |
| 2026-04-25 20:17 | 53.64112 | 9.99007 | 49 ft | 27 kts | 153° |
| 2026-04-25 20:17 | 53.63941 | 9.99156 | 48 ft | 27 kts | 152° |
| 2026-04-25 20:17 | 53.63784 | 9.99321 | 48 ft | 26 kts | 137° |
| 2026-04-25 20:18 | 53.63679 | 9.99543 | 48 ft | 19 kts | 126° |
| 2026-04-25 20:18 | 53.63624 | 9.99671 | 49 ft | 13 kts | 126° |
| 2026-04-25 20:18 | 53.63569 | 9.99802 | 50 ft | 15 kts | 126° |
| 2026-04-25 20:18 | 53.63512 | 9.99934 | 51 ft | 12 kts | 126° |
| 2026-04-25 20:19 | 53.63454 | 10.00068 | 48 ft | 16 kts | 126° |
| 2026-04-25 20:19 | 53.63363 | 10.00163 | 46 ft | 16 kts | 175° |
| 2026-04-25 20:19 | 53.63250 | 10.00175 | 48 ft | 15 kts | 176° |
| 2026-04-25 20:19 | 53.63151 | 10.00188 | 48 ft | 11 kts | 174° |
| 2026-04-25 20:20 | 53.63084 | 10.00192 | 48 ft | 11 kts | 191° |
| 2026-04-25 20:20 | 53.63012 | 10.00123 | 48 ft | 14 kts | 213° |
| 2026-04-25 20:20 | 53.62950 | 10.00054 | 46 ft | 11 kts | 213° |
| 2026-04-25 20:20 | 53.62872 | 10.00048 | 47 ft | 13 kts | 158° |
| 2026-04-25 20:21 | 53.62792 | 10.00118 | 48 ft | 8 kts | 153° |
| 2026-04-25 20:21 | 53.62785 | 10.00173 | 48 ft | 7 kts | 60° |
| 2026-04-25 20:21 | 53.62802 | 10.00222 | 46 ft | 3 kts | 61° |
| 2026-04-25 20:21 | 53.62808 | 10.00243 | 48 ft | 1 kts | 63° |
| 2026-04-25 20:22 | 53.62809 | 10.00247 | 48 ft | 0 kts | 63° |